sensor_id;sensor_type;location;lat;lon;timestamp;temperature;humidity
26224;DHT22;14820;48.682;8.890;2024-03-08T00:00:51;3.80;99.90
26224;DHT22;14820;48.682;8.890;2024-03-08T00:03:17;3.80;99.90
26224;DHT22;14820;48.682;8.890;2024-03-08T00:05:42;3.70;99.90
26224;DHT22;14820;48.682;8.890;2024-03-08T00:08:08;3.70;99.90
26224;DHT22;14820;48.682;8.890;2024-03-08T00:10:35;3.70;99.90
26224;DHT22;14820;48.682;8.890;2024-03-08T00:13:01;3.60;99.90
26224;DHT22;14820;48.682;8.890;2024-03-08T00:15:29;3.60;99.90
26224;DHT22;14820;48.682;8.890;2024-03-08T00:17:56;3.50;99.90
26224;DHT22;14820;48.682;8.890;2024-03-08T00:20:21;3.60;99.90
26224;DHT22;14820;48.682;8.890;2024-03-08T00:22:48;3.50;99.90
26224;DHT22;14820;48.682;8.890;2024-03-08T00:25:14;3.40;99.90
26224;DHT22;14820;48.682;8.890;2024-03-08T00:27:40;3.40;99.90
26224;DHT22;14820;48.682;8.890;2024-03-08T00:30:09;3.30;99.90
26224;DHT22;14820;48.682;8.890;2024-03-08T00:32:36;3.30;99.90
26224;DHT22;14820;48.682;8.890;2024-03-08T00:35:02;3.20;99.90
26224;DHT22;14820;48.682;8.890;2024-03-08T00:37:28;3.20;99.90
26224;DHT22;14820;48.682;8.890;2024-03-08T00:39:53;3.10;99.90
26224;DHT22;14820;48.682;8.890;2024-03-08T00:42:19;3.00;99.90
26224;DHT22;14820;48.682;8.890;2024-03-08T00:44:46;3.00;99.90
26224;DHT22;14820;48.682;8.890;2024-03-08T00:47:12;3.00;99.90
26224;DHT22;14820;48.682;8.890;2024-03-08T00:49:38;2.90;99.90
26224;DHT22;14820;48.682;8.890;2024-03-08T00:52:06;2.90;99.90
26224;DHT22;14820;48.682;8.890;2024-03-08T00:54:33;2.80;99.90
26224;DHT22;14820;48.682;8.890;2024-03-08T00:56:58;2.80;99.90
26224;DHT22;14820;48.682;8.890;2024-03-08T00:59:25;2.70;99.90
26224;DHT22;14820;48.682;8.890;2024-03-08T01:01:51;2.60;99.90
26224;DHT22;14820;48.682;8.890;2024-03-08T01:04:17;2.60;99.90
26224;DHT22;14820;48.682;8.890;2024-03-08T01:06:43;2.60;99.90
26224;DHT22;14820;48.682;8.890;2024-03-08T01:09:11;2.60;99.90
26224;DHT22;14820;48.682;8.890;2024-03-08T01:11:37;2.60;99.90
26224;DHT22;14820;48.682;8.890;2024-03-08T01:14:03;2.50;99.90
26224;DHT22;14820;48.682;8.890;2024-03-08T01:16:29;2.40;99.90
26224;DHT22;14820;48.682;8.890;2024-03-08T01:18:54;2.30;99.90
26224;DHT22;14820;48.682;8.890;2024-03-08T01:21:20;2.30;99.90
26224;DHT22;14820;48.682;8.890;2024-03-08T01:23:46;2.10;99.90
26224;DHT22;14820;48.682;8.890;2024-03-08T01:26:12;2.10;99.90
26224;DHT22;14820;48.682;8.890;2024-03-08T01:28:37;2.00;99.90
26224;DHT22;14820;48.682;8.890;2024-03-08T01:31:03;1.90;99.90
26224;DHT22;14820;48.682;8.890;2024-03-08T01:33:29;1.80;99.90
26224;DHT22;14820;48.682;8.890;2024-03-08T01:35:56;1.70;99.90
26224;DHT22;14820;48.682;8.890;2024-03-08T01:38:22;1.70;99.90
26224;DHT22;14820;48.682;8.890;2024-03-08T01:40:49;1.70;99.90
26224;DHT22;14820;48.682;8.890;2024-03-08T01:43:18;1.70;99.90
26224;DHT22;14820;48.682;8.890;2024-03-08T01:45:44;1.70;99.90
26224;DHT22;14820;48.682;8.890;2024-03-08T01:48:10;1.70;99.90
26224;DHT22;14820;48.682;8.890;2024-03-08T01:50:38;1.60;99.90
26224;DHT22;14820;48.682;8.890;2024-03-08T01:53:05;1.60;99.90
26224;DHT22;14820;48.682;8.890;2024-03-08T01:55:32;1.60;99.90
26224;DHT22;14820;48.682;8.890;2024-03-08T01:57:58;1.50;99.90
26224;DHT22;14820;48.682;8.890;2024-03-08T02:00:25;1.50;99.90
26224;DHT22;14820;48.682;8.890;2024-03-08T02:02:54;1.40;99.90
26224;DHT22;14820;48.682;8.890;2024-03-08T02:05:20;1.40;99.90
26224;DHT22;14820;48.682;8.890;2024-03-08T02:07:46;1.40;99.90
26224;DHT22;14820;48.682;8.890;2024-03-08T02:10:12;1.40;99.90
26224;DHT22;14820;48.682;8.890;2024-03-08T02:12:38;1.30;99.90
26224;DHT22;14820;48.682;8.890;2024-03-08T02:15:04;1.20;99.90
26224;DHT22;14820;48.682;8.890;2024-03-08T02:17:32;1.20;99.90
26224;DHT22;14820;48.682;8.890;2024-03-08T02:19:59;1.10;99.90
26224;DHT22;14820;48.682;8.890;2024-03-08T02:22:28;1.10;99.90
26224;DHT22;14820;48.682;8.890;2024-03-08T02:24:55;1.10;99.90
26224;DHT22;14820;48.682;8.890;2024-03-08T02:27:24;1.10;99.90
26224;DHT22;14820;48.682;8.890;2024-03-08T02:29:54;1.10;99.90
26224;DHT22;14820;48.682;8.890;2024-03-08T02:32:23;1.10;99.90
26224;DHT22;14820;48.682;8.890;2024-03-08T02:34:50;1.10;99.90
26224;DHT22;14820;48.682;8.890;2024-03-08T02:37:16;1.00;99.90
26224;DHT22;14820;48.682;8.890;2024-03-08T02:39:42;1.00;99.90
26224;DHT22;14820;48.682;8.890;2024-03-08T02:42:08;1.00;99.90
26224;DHT22;14820;48.682;8.890;2024-03-08T02:44:34;0.90;99.90
26224;DHT22;14820;48.682;8.890;2024-03-08T02:47:00;0.90;99.90
26224;DHT22;14820;48.682;8.890;2024-03-08T02:49:26;0.90;99.90
26224;DHT22;14820;48.682;8.890;2024-03-08T02:51:53;0.80;99.90
26224;DHT22;14820;48.682;8.890;2024-03-08T02:54:19;0.80;99.90
26224;DHT22;14820;48.682;8.890;2024-03-08T02:56:45;0.70;99.90
26224;DHT22;14820;48.682;8.890;2024-03-08T02:59:16;0.70;99.90
26224;DHT22;14820;48.682;8.890;2024-03-08T03:01:43;0.70;99.90
26224;DHT22;14820;48.682;8.890;2024-03-08T03:04:09;0.70;99.90
26224;DHT22;14820;48.682;8.890;2024-03-08T03:06:35;0.70;99.90
26224;DHT22;14820;48.682;8.890;2024-03-08T03:09:01;0.70;99.90
26224;DHT22;14820;48.682;8.890;2024-03-08T03:11:27;0.70;99.90
26224;DHT22;14820;48.682;8.890;2024-03-08T03:13:53;0.70;99.90
26224;DHT22;14820;48.682;8.890;2024-03-08T03:16:19;0.70;99.90
26224;DHT22;14820;48.682;8.890;2024-03-08T03:18:45;0.70;99.90
26224;DHT22;14820;48.682;8.890;2024-03-08T03:21:12;0.60;99.90
26224;DHT22;14820;48.682;8.890;2024-03-08T03:23:39;0.60;99.90
26224;DHT22;14820;48.682;8.890;2024-03-08T03:26:05;0.60;99.90
26224;DHT22;14820;48.682;8.890;2024-03-08T03:28:33;0.50;99.90
26224;DHT22;14820;48.682;8.890;2024-03-08T03:30:59;0.40;99.90
26224;DHT22;14820;48.682;8.890;2024-03-08T03:33:25;0.40;99.90
26224;DHT22;14820;48.682;8.890;2024-03-08T03:35:51;0.40;99.90
26224;DHT22;14820;48.682;8.890;2024-03-08T03:38:17;0.40;99.90
26224;DHT22;14820;48.682;8.890;2024-03-08T03:40:45;0.40;99.90
26224;DHT22;14820;48.682;8.890;2024-03-08T03:43:11;0.30;99.90
26224;DHT22;14820;48.682;8.890;2024-03-08T03:45:39;0.30;99.90
26224;DHT22;14820;48.682;8.890;2024-03-08T03:48:07;0.20;99.90
26224;DHT22;14820;48.682;8.890;2024-03-08T03:50:35;0.20;99.90
26224;DHT22;14820;48.682;8.890;2024-03-08T03:53:00;0.20;99.90
26224;DHT22;14820;48.682;8.890;2024-03-08T03:55:27;0.20;99.90
26224;DHT22;14820;48.682;8.890;2024-03-08T03:57:54;0.20;99.90
26224;DHT22;14820;48.682;8.890;2024-03-08T04:00:19;0.20;99.90
26224;DHT22;14820;48.682;8.890;2024-03-08T04:02:45;0.20;99.90
26224;DHT22;14820;48.682;8.890;2024-03-08T04:05:12;0.20;99.90
26224;DHT22;14820;48.682;8.890;2024-03-08T04:07:39;0.20;99.90
26224;DHT22;14820;48.682;8.890;2024-03-08T04:10:06;0.20;99.90
26224;DHT22;14820;48.682;8.890;2024-03-08T04:12:35;0.20;99.90
26224;DHT22;14820;48.682;8.890;2024-03-08T04:15:01;0.20;99.90
26224;DHT22;14820;48.682;8.890;2024-03-08T04:17:27;0.10;99.90
26224;DHT22;14820;48.682;8.890;2024-03-08T04:19:52;0.10;99.90
26224;DHT22;14820;48.682;8.890;2024-03-08T04:22:19;0.10;99.90
26224;DHT22;14820;48.682;8.890;2024-03-08T04:24:45;0.10;99.90
26224;DHT22;14820;48.682;8.890;2024-03-08T04:27:11;0.20;99.90
26224;DHT22;14820;48.682;8.890;2024-03-08T04:29:37;0.10;99.90
26224;DHT22;14820;48.682;8.890;2024-03-08T04:32:04;0.10;99.90
26224;DHT22;14820;48.682;8.890;2024-03-08T04:34:31;0.10;99.90
26224;DHT22;14820;48.682;8.890;2024-03-08T04:37:00;0.00;99.90
26224;DHT22;14820;48.682;8.890;2024-03-08T04:39:26;0.00;99.90
26224;DHT22;14820;48.682;8.890;2024-03-08T04:41:56;0.00;99.90
26224;DHT22;14820;48.682;8.890;2024-03-08T04:44:24;0.00;99.90
26224;DHT22;14820;48.682;8.890;2024-03-08T04:46:52;-0.10;99.90
26224;DHT22;14820;48.682;8.890;2024-03-08T04:49:18;0.00;99.90
26224;DHT22;14820;48.682;8.890;2024-03-08T04:51:43;-0.10;99.90
26224;DHT22;14820;48.682;8.890;2024-03-08T04:54:10;-0.10;99.90
26224;DHT22;14820;48.682;8.890;2024-03-08T04:56:36;-0.10;99.90
26224;DHT22;14820;48.682;8.890;2024-03-08T04:59:01;0.00;99.90
26224;DHT22;14820;48.682;8.890;2024-03-08T05:01:27;-0.10;99.90
26224;DHT22;14820;48.682;8.890;2024-03-08T05:03:53;0.00;99.90
26224;DHT22;14820;48.682;8.890;2024-03-08T05:06:20;-0.10;99.90
26224;DHT22;14820;48.682;8.890;2024-03-08T05:08:46;-0.10;99.90
26224;DHT22;14820;48.682;8.890;2024-03-08T05:11:12;-0.10;99.90
26224;DHT22;14820;48.682;8.890;2024-03-08T05:13:40;-0.10;99.90
26224;DHT22;14820;48.682;8.890;2024-03-08T05:16:06;-0.10;99.90
26224;DHT22;14820;48.682;8.890;2024-03-08T05:18:33;-0.20;99.90
26224;DHT22;14820;48.682;8.890;2024-03-08T05:20:59;-0.20;99.90
26224;DHT22;14820;48.682;8.890;2024-03-08T05:23:24;-0.30;99.90
26224;DHT22;14820;48.682;8.890;2024-03-08T05:25:50;-0.30;99.90
26224;DHT22;14820;48.682;8.890;2024-03-08T05:28:16;-0.30;99.90
26224;DHT22;14820;48.682;8.890;2024-03-08T05:30:42;-0.30;99.90
26224;DHT22;14820;48.682;8.890;2024-03-08T05:33:08;-0.30;99.90
26224;DHT22;14820;48.682;8.890;2024-03-08T05:35:36;-0.30;99.90
26224;DHT22;14820;48.682;8.890;2024-03-08T05:38:02;-0.30;99.90
26224;DHT22;14820;48.682;8.890;2024-03-08T05:40:28;-0.40;99.90
26224;DHT22;14820;48.682;8.890;2024-03-08T05:42:58;-0.40;99.90
26224;DHT22;14820;48.682;8.890;2024-03-08T05:45:24;-0.40;99.90
26224;DHT22;14820;48.682;8.890;2024-03-08T05:47:50;-0.40;99.90
26224;DHT22;14820;48.682;8.890;2024-03-08T05:50:17;-0.50;99.90
26224;DHT22;14820;48.682;8.890;2024-03-08T05:52:43;-0.40;99.90
26224;DHT22;14820;48.682;8.890;2024-03-08T05:55:09;-0.40;99.90
26224;DHT22;14820;48.682;8.890;2024-03-08T05:57:35;-0.50;99.90
26224;DHT22;14820;48.682;8.890;2024-03-08T06:00:06;-0.50;99.90
26224;DHT22;14820;48.682;8.890;2024-03-08T06:02:31;-0.50;99.90
26224;DHT22;14820;48.682;8.890;2024-03-08T06:04:58;-0.50;99.90
26224;DHT22;14820;48.682;8.890;2024-03-08T06:07:23;-0.50;99.90
26224;DHT22;14820;48.682;8.890;2024-03-08T06:09:49;-0.50;99.90
26224;DHT22;14820;48.682;8.890;2024-03-08T06:12:15;-0.50;99.90
26224;DHT22;14820;48.682;8.890;2024-03-08T06:14:45;-0.50;99.90
26224;DHT22;14820;48.682;8.890;2024-03-08T06:17:10;-0.50;99.90
26224;DHT22;14820;48.682;8.890;2024-03-08T06:19:37;-0.50;99.90
26224;DHT22;14820;48.682;8.890;2024-03-08T06:22:02;-0.40;99.90
26224;DHT22;14820;48.682;8.890;2024-03-08T06:24:31;-0.40;99.90
26224;DHT22;14820;48.682;8.890;2024-03-08T06:26:57;-0.40;99.90
26224;DHT22;14820;48.682;8.890;2024-03-08T06:29:23;-0.30;99.90
26224;DHT22;14820;48.682;8.890;2024-03-08T06:31:50;-0.30;99.90
26224;DHT22;14820;48.682;8.890;2024-03-08T06:34:16;-0.20;99.90
26224;DHT22;14820;48.682;8.890;2024-03-08T06:36:43;-0.20;99.90
26224;DHT22;14820;48.682;8.890;2024-03-08T06:39:09;-0.10;99.90
26224;DHT22;14820;48.682;8.890;2024-03-08T06:41:37;0.00;99.90
26224;DHT22;14820;48.682;8.890;2024-03-08T06:44:03;-0.10;99.90
26224;DHT22;14820;48.682;8.890;2024-03-08T06:46:29;-0.10;99.90
26224;DHT22;14820;48.682;8.890;2024-03-08T06:48:54;-0.10;99.90
26224;DHT22;14820;48.682;8.890;2024-03-08T06:51:21;-0.10;99.90
26224;DHT22;14820;48.682;8.890;2024-03-08T06:53:47;0.00;99.90
26224;DHT22;14820;48.682;8.890;2024-03-08T06:56:14;0.00;99.90
26224;DHT22;14820;48.682;8.890;2024-03-08T06:58:41;0.10;99.90
26224;DHT22;14820;48.682;8.890;2024-03-08T07:01:07;0.10;99.90
26224;DHT22;14820;48.682;8.890;2024-03-08T07:03:41;0.20;99.90
26224;DHT22;14820;48.682;8.890;2024-03-08T07:06:10;0.30;99.90
26224;DHT22;14820;48.682;8.890;2024-03-08T07:08:36;0.30;99.90
26224;DHT22;14820;48.682;8.890;2024-03-08T07:11:02;0.40;99.90
26224;DHT22;14820;48.682;8.890;2024-03-08T07:13:28;0.40;99.90
26224;DHT22;14820;48.682;8.890;2024-03-08T07:15:55;0.50;99.90
26224;DHT22;14820;48.682;8.890;2024-03-08T07:18:20;0.50;99.90
26224;DHT22;14820;48.682;8.890;2024-03-08T07:20:47;0.60;99.90
26224;DHT22;14820;48.682;8.890;2024-03-08T07:23:14;0.70;99.90
26224;DHT22;14820;48.682;8.890;2024-03-08T07:26:00;0.70;99.90
26224;DHT22;14820;48.682;8.890;2024-03-08T07:28:26;0.80;99.90
26224;DHT22;14820;48.682;8.890;2024-03-08T07:30:53;0.80;99.90
26224;DHT22;14820;48.682;8.890;2024-03-08T07:33:27;0.90;99.90
26224;DHT22;14820;48.682;8.890;2024-03-08T07:35:52;0.90;99.90
26224;DHT22;14820;48.682;8.890;2024-03-08T07:38:18;1.00;99.90
26224;DHT22;14820;48.682;8.890;2024-03-08T07:40:46;1.00;99.90
26224;DHT22;14820;48.682;8.890;2024-03-08T07:43:13;1.00;99.90
26224;DHT22;14820;48.682;8.890;2024-03-08T07:45:39;1.10;99.90
26224;DHT22;14820;48.682;8.890;2024-03-08T07:48:05;1.10;99.90
26224;DHT22;14820;48.682;8.890;2024-03-08T07:50:38;1.20;99.90
26224;DHT22;14820;48.682;8.890;2024-03-08T07:53:05;1.20;99.90
26224;DHT22;14820;48.682;8.890;2024-03-08T07:55:34;1.30;99.90
26224;DHT22;14820;48.682;8.890;2024-03-08T07:58:03;1.30;99.90
26224;DHT22;14820;48.682;8.890;2024-03-08T08:00:30;1.40;99.90
26224;DHT22;14820;48.682;8.890;2024-03-08T08:02:57;1.40;99.90
26224;DHT22;14820;48.682;8.890;2024-03-08T08:05:22;1.50;99.90
26224;DHT22;14820;48.682;8.890;2024-03-08T08:07:48;1.50;99.90
26224;DHT22;14820;48.682;8.890;2024-03-08T08:10:15;1.50;99.90
26224;DHT22;14820;48.682;8.890;2024-03-08T08:12:49;1.50;99.90
26224;DHT22;14820;48.682;8.890;2024-03-08T08:15:15;1.60;99.90
26224;DHT22;14820;48.682;8.890;2024-03-08T08:17:42;1.60;99.90
26224;DHT22;14820;48.682;8.890;2024-03-08T08:20:09;1.70;99.90
26224;DHT22;14820;48.682;8.890;2024-03-08T08:22:39;1.70;99.90
26224;DHT22;14820;48.682;8.890;2024-03-08T08:25:08;1.70;99.90
26224;DHT22;14820;48.682;8.890;2024-03-08T08:27:34;1.80;99.90
26224;DHT22;14820;48.682;8.890;2024-03-08T08:30:02;1.80;99.90
26224;DHT22;14820;48.682;8.890;2024-03-08T08:32:34;1.90;99.90
26224;DHT22;14820;48.682;8.890;2024-03-08T08:35:00;1.90;99.90
26224;DHT22;14820;48.682;8.890;2024-03-08T08:37:26;1.90;99.90
26224;DHT22;14820;48.682;8.890;2024-03-08T08:39:51;1.90;99.90
26224;DHT22;14820;48.682;8.890;2024-03-08T08:42:18;1.90;99.90
26224;DHT22;14820;48.682;8.890;2024-03-08T08:44:43;2.00;99.90
26224;DHT22;14820;48.682;8.890;2024-03-08T08:47:09;2.00;99.90
26224;DHT22;14820;48.682;8.890;2024-03-08T08:49:35;2.00;99.90
26224;DHT22;14820;48.682;8.890;2024-03-08T08:52:00;2.00;99.90
26224;DHT22;14820;48.682;8.890;2024-03-08T08:54:26;2.10;99.90
26224;DHT22;14820;48.682;8.890;2024-03-08T08:56:53;2.10;99.90
26224;DHT22;14820;48.682;8.890;2024-03-08T08:59:19;2.10;99.90
26224;DHT22;14820;48.682;8.890;2024-03-08T09:01:48;2.20;99.90
26224;DHT22;14820;48.682;8.890;2024-03-08T09:04:13;2.20;99.90
26224;DHT22;14820;48.682;8.890;2024-03-08T09:06:39;2.20;99.90
26224;DHT22;14820;48.682;8.890;2024-03-08T09:09:08;2.30;99.90
26224;DHT22;14820;48.682;8.890;2024-03-08T09:11:38;2.30;99.90
26224;DHT22;14820;48.682;8.890;2024-03-08T09:14:08;2.30;99.90
26224;DHT22;14820;48.682;8.890;2024-03-08T09:16:34;2.30;99.90
26224;DHT22;14820;48.682;8.890;2024-03-08T09:19:00;2.40;99.90
26224;DHT22;14820;48.682;8.890;2024-03-08T09:21:26;2.40;99.90
26224;DHT22;14820;48.682;8.890;2024-03-08T09:23:53;2.40;99.90
26224;DHT22;14820;48.682;8.890;2024-03-08T09:26:19;2.50;99.90
26224;DHT22;14820;48.682;8.890;2024-03-08T09:28:45;2.50;99.90
26224;DHT22;14820;48.682;8.890;2024-03-08T09:31:11;2.50;99.90
26224;DHT22;14820;48.682;8.890;2024-03-08T09:33:37;2.50;99.90
26224;DHT22;14820;48.682;8.890;2024-03-08T09:36:05;2.60;99.90
26224;DHT22;14820;48.682;8.890;2024-03-08T09:38:31;2.60;99.90
26224;DHT22;14820;48.682;8.890;2024-03-08T09:40:57;2.60;99.90
26224;DHT22;14820;48.682;8.890;2024-03-08T09:43:23;2.60;99.90
26224;DHT22;14820;48.682;8.890;2024-03-08T09:45:49;2.70;99.90
26224;DHT22;14820;48.682;8.890;2024-03-08T09:48:17;2.70;99.90
26224;DHT22;14820;48.682;8.890;2024-03-08T09:50:44;2.70;99.90
26224;DHT22;14820;48.682;8.890;2024-03-08T09:53:11;2.70;99.90
26224;DHT22;14820;48.682;8.890;2024-03-08T09:55:38;2.70;99.90
26224;DHT22;14820;48.682;8.890;2024-03-08T09:58:08;2.80;99.90
26224;DHT22;14820;48.682;8.890;2024-03-08T10:00:53;2.80;99.90
26224;DHT22;14820;48.682;8.890;2024-03-08T10:03:22;2.80;99.90
26224;DHT22;14820;48.682;8.890;2024-03-08T10:05:47;2.90;99.90
26224;DHT22;14820;48.682;8.890;2024-03-08T10:08:14;2.90;99.90
26224;DHT22;14820;48.682;8.890;2024-03-08T10:10:40;2.90;99.90
26224;DHT22;14820;48.682;8.890;2024-03-08T10:13:06;3.00;99.90
26224;DHT22;14820;48.682;8.890;2024-03-08T10:15:32;3.00;99.90
26224;DHT22;14820;48.682;8.890;2024-03-08T10:17:58;3.00;99.90
26224;DHT22;14820;48.682;8.890;2024-03-08T10:20:24;3.00;99.90
26224;DHT22;14820;48.682;8.890;2024-03-08T10:22:51;3.00;99.90
26224;DHT22;14820;48.682;8.890;2024-03-08T10:25:19;3.00;99.90
26224;DHT22;14820;48.682;8.890;2024-03-08T10:27:45;3.00;99.90
26224;DHT22;14820;48.682;8.890;2024-03-08T10:30:14;3.00;99.90
26224;DHT22;14820;48.682;8.890;2024-03-08T10:32:40;3.10;99.90
26224;DHT22;14820;48.682;8.890;2024-03-08T10:35:09;3.10;99.90
26224;DHT22;14820;48.682;8.890;2024-03-08T10:40:10;3.20;99.90
26224;DHT22;14820;48.682;8.890;2024-03-08T10:42:53;3.20;99.90
26224;DHT22;14820;48.682;8.890;2024-03-08T10:45:38;3.20;99.90
26224;DHT22;14820;48.682;8.890;2024-03-08T10:48:26;3.30;99.90
26224;DHT22;14820;48.682;8.890;2024-03-08T10:51:05;3.30;99.90
26224;DHT22;14820;48.682;8.890;2024-03-08T10:53:34;3.30;99.90
26224;DHT22;14820;48.682;8.890;2024-03-08T10:56:02;3.40;99.90
26224;DHT22;14820;48.682;8.890;2024-03-08T10:58:28;3.50;99.90
26224;DHT22;14820;48.682;8.890;2024-03-08T11:00:55;3.50;99.90
26224;DHT22;14820;48.682;8.890;2024-03-08T11:08:48;3.70;99.90
26224;DHT22;14820;48.682;8.890;2024-03-08T11:11:38;3.70;99.90
26224;DHT22;14820;48.682;8.890;2024-03-08T11:14:43;3.80;99.90
26224;DHT22;14820;48.682;8.890;2024-03-08T11:17:09;3.90;99.90
26224;DHT22;14820;48.682;8.890;2024-03-08T11:19:35;3.90;99.90
26224;DHT22;14820;48.682;8.890;2024-03-08T11:22:04;3.90;99.90
26224;DHT22;14820;48.682;8.890;2024-03-08T11:24:37;4.00;99.90
26224;DHT22;14820;48.682;8.890;2024-03-08T11:27:05;4.10;99.90
26224;DHT22;14820;48.682;8.890;2024-03-08T11:29:35;4.10;99.90
26224;DHT22;14820;48.682;8.890;2024-03-08T11:32:14;4.20;99.90
26224;DHT22;14820;48.682;8.890;2024-03-08T11:34:42;4.20;99.90
26224;DHT22;14820;48.682;8.890;2024-03-08T11:37:15;4.30;99.90
26224;DHT22;14820;48.682;8.890;2024-03-08T11:39:47;4.30;99.90
26224;DHT22;14820;48.682;8.890;2024-03-08T11:42:19;4.50;99.90
26224;DHT22;14820;48.682;8.890;2024-03-08T11:44:46;4.50;99.90
26224;DHT22;14820;48.682;8.890;2024-03-08T11:47:14;4.60;99.90
26224;DHT22;14820;48.682;8.890;2024-03-08T11:49:40;4.60;99.90
26224;DHT22;14820;48.682;8.890;2024-03-08T11:52:16;4.70;99.90
26224;DHT22;14820;48.682;8.890;2024-03-08T11:54:52;4.70;99.90
26224;DHT22;14820;48.682;8.890;2024-03-08T11:57:23;4.80;99.90
26224;DHT22;14820;48.682;8.890;2024-03-08T11:59:55;4.80;99.90
26224;DHT22;14820;48.682;8.890;2024-03-08T12:03:06;4.90;99.90
26224;DHT22;14820;48.682;8.890;2024-03-08T12:05:33;4.90;99.90
26224;DHT22;14820;48.682;8.890;2024-03-08T12:08:00;5.00;99.90
26224;DHT22;14820;48.682;8.890;2024-03-08T12:10:25;5.00;99.90
26224;DHT22;14820;48.682;8.890;2024-03-08T12:12:57;5.10;99.90
26224;DHT22;14820;48.682;8.890;2024-03-08T12:15:25;5.00;99.90
26224;DHT22;14820;48.682;8.890;2024-03-08T12:17:52;5.00;99.90
26224;DHT22;14820;48.682;8.890;2024-03-08T12:20:26;5.20;99.90
26224;DHT22;14820;48.682;8.890;2024-03-08T12:22:55;5.40;99.90
26224;DHT22;14820;48.682;8.890;2024-03-08T12:25:31;5.60;99.90
26224;DHT22;14820;48.682;8.890;2024-03-08T12:28:10;5.70;99.90
26224;DHT22;14820;48.682;8.890;2024-03-08T12:30:47;5.80;99.90
26224;DHT22;14820;48.682;8.890;2024-03-08T12:33:13;6.00;99.90
26224;DHT22;14820;48.682;8.890;2024-03-08T12:35:39;6.10;99.90
26224;DHT22;14820;48.682;8.890;2024-03-08T12:38:05;6.30;99.90
26224;DHT22;14820;48.682;8.890;2024-03-08T12:40:33;6.40;99.90
26224;DHT22;14820;48.682;8.890;2024-03-08T12:43:01;6.50;99.90
26224;DHT22;14820;48.682;8.890;2024-03-08T12:45:27;6.70;99.90
26224;DHT22;14820;48.682;8.890;2024-03-08T12:47:54;6.80;99.90
26224;DHT22;14820;48.682;8.890;2024-03-08T12:50:21;7.00;99.90
26224;DHT22;14820;48.682;8.890;2024-03-08T12:52:47;7.20;99.90
26224;DHT22;14820;48.682;8.890;2024-03-08T12:55:14;7.30;99.90
26224;DHT22;14820;48.682;8.890;2024-03-08T12:57:42;7.50;99.90
26224;DHT22;14820;48.682;8.890;2024-03-08T13:00:08;7.60;99.90
26224;DHT22;14820;48.682;8.890;2024-03-08T13:02:39;7.70;99.90
26224;DHT22;14820;48.682;8.890;2024-03-08T13:05:05;7.90;99.90
26224;DHT22;14820;48.682;8.890;2024-03-08T13:07:31;7.90;99.90
26224;DHT22;14820;48.682;8.890;2024-03-08T13:09:57;8.00;99.90
26224;DHT22;14820;48.682;8.890;2024-03-08T13:12:25;8.10;99.90
26224;DHT22;14820;48.682;8.890;2024-03-08T13:14:50;8.20;99.90
26224;DHT22;14820;48.682;8.890;2024-03-08T13:17:17;8.40;99.90
26224;DHT22;14820;48.682;8.890;2024-03-08T13:19:44;8.50;99.90
26224;DHT22;14820;48.682;8.890;2024-03-08T13:22:10;8.60;99.90
26224;DHT22;14820;48.682;8.890;2024-03-08T13:24:39;8.70;99.90
26224;DHT22;14820;48.682;8.890;2024-03-08T13:27:07;8.80;99.90
26224;DHT22;14820;48.682;8.890;2024-03-08T13:29:42;8.90;99.90
26224;DHT22;14820;48.682;8.890;2024-03-08T13:32:08;9.00;99.90
26224;DHT22;14820;48.682;8.890;2024-03-08T13:34:40;9.10;99.90
26224;DHT22;14820;48.682;8.890;2024-03-08T13:37:06;9.20;99.90
26224;DHT22;14820;48.682;8.890;2024-03-08T13:39:31;9.30;99.90
26224;DHT22;14820;48.682;8.890;2024-03-08T13:42:07;9.50;99.90
26224;DHT22;14820;48.682;8.890;2024-03-08T13:44:35;9.50;99.90
26224;DHT22;14820;48.682;8.890;2024-03-08T13:47:02;9.60;99.90
26224;DHT22;14820;48.682;8.890;2024-03-08T13:49:30;9.60;99.90
26224;DHT22;14820;48.682;8.890;2024-03-08T13:51:56;9.70;99.90
26224;DHT22;14820;48.682;8.890;2024-03-08T13:54:24;9.80;99.90
26224;DHT22;14820;48.682;8.890;2024-03-08T13:56:50;9.90;99.90
26224;DHT22;14820;48.682;8.890;2024-03-08T13:59:20;10.00;99.90
26224;DHT22;14820;48.682;8.890;2024-03-08T14:01:49;10.10;99.90
26224;DHT22;14820;48.682;8.890;2024-03-08T14:04:16;10.20;99.90
26224;DHT22;14820;48.682;8.890;2024-03-08T14:06:44;10.30;99.90
26224;DHT22;14820;48.682;8.890;2024-03-08T14:09:11;10.40;99.90
26224;DHT22;14820;48.682;8.890;2024-03-08T14:11:43;10.50;99.90
26224;DHT22;14820;48.682;8.890;2024-03-08T14:14:10;10.50;99.90
26224;DHT22;14820;48.682;8.890;2024-03-08T14:16:38;10.50;99.90
26224;DHT22;14820;48.682;8.890;2024-03-08T14:19:04;10.50;99.90
26224;DHT22;14820;48.682;8.890;2024-03-08T14:21:31;10.60;99.90
26224;DHT22;14820;48.682;8.890;2024-03-08T14:23:57;10.70;99.90
26224;DHT22;14820;48.682;8.890;2024-03-08T14:26:23;10.70;99.90
26224;DHT22;14820;48.682;8.890;2024-03-08T14:28:49;10.70;99.90
26224;DHT22;14820;48.682;8.890;2024-03-08T14:31:20;10.90;99.90
26224;DHT22;14820;48.682;8.890;2024-03-08T14:33:46;11.00;99.90
26224;DHT22;14820;48.682;8.890;2024-03-08T14:36:15;11.00;99.90
26224;DHT22;14820;48.682;8.890;2024-03-08T14:38:43;11.10;99.90
26224;DHT22;14820;48.682;8.890;2024-03-08T14:41:08;11.20;99.90
26224;DHT22;14820;48.682;8.890;2024-03-08T14:43:34;11.30;99.90
26224;DHT22;14820;48.682;8.890;2024-03-08T14:46:00;11.40;99.90
26224;DHT22;14820;48.682;8.890;2024-03-08T14:48:26;11.40;99.90
26224;DHT22;14820;48.682;8.890;2024-03-08T14:50:51;11.40;99.90
26224;DHT22;14820;48.682;8.890;2024-03-08T14:53:17;11.50;99.90
26224;DHT22;14820;48.682;8.890;2024-03-08T14:55:44;11.50;99.90
26224;DHT22;14820;48.682;8.890;2024-03-08T14:58:13;11.50;99.90
26224;DHT22;14820;48.682;8.890;2024-03-08T15:00:38;11.50;99.90
26224;DHT22;14820;48.682;8.890;2024-03-08T15:03:07;11.50;99.90
26224;DHT22;14820;48.682;8.890;2024-03-08T15:05:36;11.50;99.90
26224;DHT22;14820;48.682;8.890;2024-03-08T15:08:07;11.40;99.90
26224;DHT22;14820;48.682;8.890;2024-03-08T15:10:36;11.40;99.90
26224;DHT22;14820;48.682;8.890;2024-03-08T15:13:02;11.30;99.90
26224;DHT22;14820;48.682;8.890;2024-03-08T15:15:33;11.30;99.90
26224;DHT22;14820;48.682;8.890;2024-03-08T15:17:58;11.20;99.90
26224;DHT22;14820;48.682;8.890;2024-03-08T15:20:24;11.20;99.90
26224;DHT22;14820;48.682;8.890;2024-03-08T15:22:50;11.20;99.90
26224;DHT22;14820;48.682;8.890;2024-03-08T15:25:17;11.10;99.90
26224;DHT22;14820;48.682;8.890;2024-03-08T15:27:49;11.10;99.90
26224;DHT22;14820;48.682;8.890;2024-03-08T15:30:15;11.10;99.90
26224;DHT22;14820;48.682;8.890;2024-03-08T15:32:48;11.10;99.90
26224;DHT22;14820;48.682;8.890;2024-03-08T15:35:16;11.10;99.90
26224;DHT22;14820;48.682;8.890;2024-03-08T15:37:43;11.10;99.90
26224;DHT22;14820;48.682;8.890;2024-03-08T15:40:10;11.00;99.90
26224;DHT22;14820;48.682;8.890;2024-03-08T15:42:55;11.00;99.90
26224;DHT22;14820;48.682;8.890;2024-03-08T15:45:21;10.90;99.90
26224;DHT22;14820;48.682;8.890;2024-03-08T15:47:49;10.80;99.90
26224;DHT22;14820;48.682;8.890;2024-03-08T15:50:15;10.80;99.90
26224;DHT22;14820;48.682;8.890;2024-03-08T15:52:47;10.70;99.90